Time;durP1;ratioP1;P1;durP2;ratioP2;P2;SDS_P1;SDS_P2;PMS_P1;PMS_P2;Temp;Humidity;BMP_temperature;BMP_pressure;BME280_temperature;BME280_humidity;BME280_pressure;Samples;Min_cycle;Max_cycle;Signal;HPM_P1;HPM_P2
2022/08/25 00:01:59;;;;;;;2.50;2.30;;;26.80;54.20;;;27.12;39.00;98712.16;5015201;27;114311;-84
2022/08/25 00:04:26;;;;;;;5.90;2.13;;;26.80;54.30;;;27.09;39.09;98708.13;5018021;28;113988;-82
2022/08/25 00:06:54;;;;;;;2.70;1.93;;;26.70;54.40;;;27.07;39.72;98709.78;5013424;28;123912;-84
2022/08/25 00:09:26;;;;;;;6.83;2.30;;;26.70;54.50;;;27.05;39.28;98709.41;5014411;28;123949;-84
2022/08/25 00:11:54;;;;;;;2.77;2.30;;;26.70;54.60;;;27.02;39.48;98711.06;5014704;28;114815;-83
2022/08/25 00:14:27;;;;;;;2.90;2.20;;;26.60;54.70;;;26.99;39.85;98700.56;5010019;28;114673;-84
2022/08/25 00:16:54;;;;;;;2.40;2.00;;;26.60;54.90;;;26.96;40.03;98704.28;5007021;28;124083;-83
2022/08/25 00:19:26;;;;;;;3.63;2.20;;;26.60;54.90;;;26.93;39.65;98701.50;5011705;27;124355;-83
2022/08/25 00:21:52;;;;;;;2.40;2.20;;;26.50;55.00;;;26.92;40.02;98703.53;5008706;27;114317;-82
2022/08/25 00:24:20;;;;;;;2.93;2.37;;;26.50;55.10;;;26.88;39.74;98695.06;5010445;28;113854;-83
2022/08/25 00:26:51;;;;;;;3.27;2.50;;;26.50;55.20;;;26.87;39.73;98698.31;5011001;28;123828;-84
2022/08/25 00:29:18;;;;;;;3.10;2.47;;;26.50;55.30;;;26.84;39.82;98693.47;5006235;28;123887;-83
2022/08/25 00:31:45;;;;;;;2.93;2.00;;;26.50;55.40;;;26.82;40.26;98708.09;5013438;27;115336;-82
2022/08/25 00:34:17;;;;;;;3.90;3.00;;;26.50;55.60;;;26.80;40.46;98702.03;5010475;28;116274;-83
2022/08/25 00:36:46;;;;;;;6.67;2.30;;;26.40;55.80;;;26.78;40.39;98693.16;5009859;28;123901;-84
2022/08/25 00:39:12;;;;;;;3.20;1.93;;;26.40;55.90;;;26.76;40.18;98695.63;5004712;28;123831;-83
2022/08/25 00:41:42;;;;;;;3.10;2.53;;;26.40;56.00;;;26.75;40.44;98701.72;5009210;28;114179;-83
2022/08/25 00:44:12;;;;;;;3.10;2.50;;;26.40;56.10;;;26.70;40.40;98702.97;5009990;28;113041;-84
2022/08/25 00:46:46;;;;;;;3.63;2.10;;;26.30;56.20;;;26.66;40.91;98707.91;5011911;28;124098;-82
2022/08/25 00:49:28;;;;;;;2.70;2.27;;;26.30;56.30;;;26.61;40.93;98702.69;5014004;28;124251;-84
2022/08/25 00:52:21;;;;;;;2.73;2.53;;;26.30;56.50;;;26.57;41.07;98707.59;5018281;27;114279;-83
2022/08/25 00:55:18;;;;;;;3.63;2.50;;;26.20;56.50;;;26.49;40.64;98701.19;5015658;28;114199;-83
2022/08/25 00:57:56;;;;;;;4.37;2.50;;;26.20;56.70;;;26.48;41.34;98705.25;5008655;28;123999;-85
2022/08/25 01:00:34;;;;;;;5.37;2.27;;;26.10;56.70;;;26.45;41.43;98700.41;5007501;27;123794;-83
2022/08/25 01:03:01;;;;;;;3.03;2.00;;;26.10;57.00;;;26.43;41.15;98698.00;5011844;27;113585;-83
2022/08/25 01:05:29;;;;;;;4.27;2.43;;;26.10;57.10;;;26.41;41.37;98689.13;5016906;28;114343;-83
2022/08/25 01:07:58;;;;;;;3.00;2.23;;;26.00;57.10;;;26.39;41.61;98697.25;5013067;28;123979;-81
2022/08/25 01:10:26;;;;;;;3.20;2.50;;;26.00;57.30;;;26.37;41.71;98698.91;5009168;28;123820;-83
2022/08/25 01:13:01;;;;;;;2.90;2.23;;;26.00;57.40;;;26.33;41.82;98693.28;5021219;28;113328;-83
2022/08/25 01:15:28;;;;;;;4.77;2.77;;;26.00;57.60;;;26.31;41.54;98684.38;5016156;28;113809;-83
2022/08/25 01:17:57;;;;;;;4.57;2.60;;;26.00;57.70;;;26.28;41.45;98690.91;5012505;28;123982;-84
2022/08/25 01:20:27;;;;;;;3.00;2.17;;;25.80;57.70;;;26.24;41.57;98678.78;5018794;27;123931;-85
2022/08/25 01:22:54;;;;;;;2.70;2.20;;;25.90;57.90;;;26.22;42.15;98682.06;5017125;27;114462;-84
2022/08/25 01:25:56;;;;;;;3.50;2.50;;;25.90;58.00;;;26.16;41.63;98683.72;5020433;28;114495;-83
2022/08/25 01:28:22;;;;;;;3.73;2.57;;;25.80;58.10;;;26.14;42.23;98680.53;5017858;28;124116;-83
2022/08/25 01:30:49;;;;;;;4.97;3.13;;;25.80;58.20;;;26.12;42.00;98685.00;5011088;28;124282;-84
2022/08/25 01:33:16;;;;;;;4.30;2.70;;;25.80;58.40;;;26.09;42.42;98694.34;5016209;28;114484;-82
2022/08/25 01:35:44;;;;;;;3.67;2.67;;;25.80;58.50;;;26.07;42.50;98691.13;5020757;28;114207;-83
2022/08/25 01:38:12;;;;;;;3.60;2.30;;;25.70;58.60;;;26.04;42.26;98686.31;5010593;28;124111;-83
2022/08/25 01:40:39;;;;;;;2.93;2.23;;;25.70;58.70;;;25.99;42.51;98691.19;5012520;28;123851;-83
2022/08/25 01:43:06;;;;;;;2.97;2.60;;;25.70;58.80;;;25.96;42.71;98686.38;5014006;28;114268;-82
2022/08/25 01:45:34;;;;;;;3.90;2.40;;;25.60;58.90;;;25.92;42.53;98685.59;5021711;28;114141;-81
2022/08/25 01:48:02;;;;;;;3.53;3.03;;;25.60;59.10;;;25.89;42.95;98691.28;5014743;28;124723;-82
2022/08/25 01:50:29;;;;;;;3.35;2.90;;;25.50;59.20;;;25.85;42.74;98699.03;5026904;28;122812;-83
2022/08/25 01:52:58;;;;;;;2.90;2.27;;;25.50;59.30;;;25.82;43.02;98691.31;5019805;28;114524;-82
2022/08/25 01:55:25;;;;;;;2.90;2.15;;;25.50;59.50;;;25.78;43.20;98692.16;5023204;28;114586;-81
2022/08/25 01:57:52;;;;;;;4.20;2.20;;;25.40;59.70;;;25.77;43.25;98689.75;5028510;28;124064;-84
2022/08/25 02:00:21;;;;;;;3.80;2.50;;;25.40;59.80;;;25.73;43.16;98697.47;5028902;28;123764;-82
2022/08/25 02:02:48;;;;;;;3.20;2.80;;;25.40;59.90;;;25.70;43.44;98692.63;5031990;27;114367;-83
2022/08/25 02:05:15;;;;;;;6.43;2.30;;;25.30;59.90;;;25.68;43.46;98692.25;5031563;28;113858;-84
2022/08/25 02:07:43;;;;;;;2.47;2.27;;;25.30;60.00;;;25.64;43.51;98697.94;5019132;28;124410;-82
2022/08/25 02:10:12;;;;;;;2.87;2.40;;;25.30;60.20;;;25.60;43.35;98697.16;5010818;28;123709;-81
2022/08/25 02:12:38;;;;;;;;;;;25.30;60.30;;;25.57;43.39;98693.13;5009134;28;115468;-81
2022/08/25 02:15:06;;;;;;;;;;;25.20;60.40;;;25.55;43.33;98704.09;5010159;28;114743;-83
2022/08/25 02:17:34;;;;;;;;;;;25.20;60.60;;;25.54;43.54;98701.66;5026701;28;123922;-81
2022/08/25 02:20:01;;;;;;;;;;;25.20;60.80;;;25.50;43.89;98696.03;5019437;27;123599;-82
2022/08/25 02:22:27;;;;;;;;;;;25.10;60.90;;;25.47;43.79;98699.69;5009966;28;114398;-82
2022/08/25 02:24:54;;;;;;;;;;;25.10;61.00;;;25.45;43.88;98701.34;5009609;28;114946;-83
2022/08/25 02:27:20;;;;;;;3.20;2.45;;;25.10;61.20;;;25.44;44.23;98711.03;5008872;28;124237;-82
2022/08/25 02:29:47;;;;;;;4.20;2.70;;;25.10;61.30;;;25.40;44.07;98710.25;5009325;28;123624;-82
2022/08/25 02:32:13;;;;;;;3.10;2.80;;;25.00;61.40;;;25.39;44.34;98703.81;5014358;28;114294;-79
2022/08/25 02:34:40;;;;;;;3.50;2.50;;;25.00;61.60;;;25.36;44.18;98698.94;5012280;28;113362;-82
2022/08/25 02:37:07;;;;;;;4.07;2.97;;;25.00;61.60;;;25.32;44.16;98701.00;5037075;27;124435;-83
2022/08/25 02:39:34;;;;;;;3.43;3.13;;;24.90;61.70;;;25.26;44.23;98700.66;5014408;27;126444;-82
2022/08/25 02:42:00;;;;;;;3.90;3.10;;;24.90;61.80;;;25.22;44.48;98699.06;5009181;28;114212;-79
2022/08/25 02:44:27;;;;;;;2.97;2.50;;;24.90;62.00;;;25.17;44.68;98697.47;5017599;28;114489;-82
2022/08/25 02:46:53;;;;;;;3.43;2.70;;;24.80;62.10;;;25.17;44.33;98696.66;5023030;28;123954;-81
2022/08/25 02:49:20;;;;;;;3.05;2.45;;;24.80;62.30;;;25.13;44.91;98691.00;5012811;28;123922;-83
2022/08/25 02:51:47;;;;;;;3.10;2.27;;;24.80;62.50;;;25.11;44.98;98702.72;5018183;28;114248;-82
2022/08/25 02:54:35;;;;;;;2.60;2.13;;;24.70;62.60;;;25.08;44.61;98700.72;5023854;28;113862;-83
2022/08/25 02:57:01;;;;;;;2.97;2.67;;;24.80;63.00;;;25.06;44.84;98694.66;5022964;28;124560;-82
2022/08/25 02:59:29;;;;;;;3.43;2.50;;;24.70;63.00;;;25.06;44.78;98696.69;5021772;28;123750;-82
2022/08/25 03:01:56;;;;;;;3.93;2.83;;;24.70;63.10;;;25.02;45.23;98698.75;5018260;27;115265;-79
2022/08/25 03:04:22;;;;;;;3.10;2.40;;;24.70;63.20;;;25.01;44.98;98699.94;5011001;28;114784;-79
2022/08/25 03:06:49;;;;;;;4.93;3.27;;;24.60;63.30;;;24.99;45.04;98691.91;5010535;28;124302;-82
2022/08/25 03:09:15;;;;;;;;;;;24.60;63.40;;;24.97;44.91;98696.34;5019378;28;123013;-79
2022/08/25 03:11:43;;;;;;;3.13;2.60;;;24.60;63.50;;;24.94;45.46;98691.53;5017882;28;114473;-82
2022/08/25 03:14:10;;;;;;;3.30;3.00;;;24.50;63.50;;;24.90;45.19;98694.34;5021055;28;114122;-81
2022/08/25 03:16:37;;;;;;;3.10;2.63;;;24.50;63.80;;;24.88;45.34;98688.31;5010878;28;124594;-81
2022/08/25 03:19:07;;;;;;;4.83;2.83;;;24.50;63.90;;;24.83;45.50;98685.94;5017475;28;124167;-82
2022/08/25 03:21:41;;;;;;;3.50;2.83;;;24.50;64.10;;;24.78;45.74;98686.34;5008500;28;114589;-78
2022/08/25 03:24:11;;;;;;;4.07;3.20;;;24.40;64.20;;;24.72;45.77;98691.63;5015537;28;113635;-80
2022/08/25 03:26:59;;;;;;;3.40;2.80;;;24.40;64.50;;;24.66;46.00;98685.59;5012721;28;125205;-80
2022/08/25 03:29:31;;;;;;;4.23;2.57;;;24.30;65.20;;;24.60;45.81;98692.88;5018674;28;123770;-81
2022/08/25 03:31:59;;;;;;;3.50;2.43;;;24.30;64.80;;;24.57;46.11;98699.34;5027711;28;113584;-79
2022/08/25 03:34:29;;;;;;;3.13;2.73;;;24.20;64.90;;;24.53;46.03;98692.09;5013765;28;113949;-77
2022/08/25 03:36:57;;;;;;;3.03;2.73;;;24.20;65.10;;;24.50;46.43;98693.72;5015073;27;124238;-82
2022/08/25 03:39:25;;;;;;;3.10;2.57;;;24.10;65.30;;;24.48;46.31;98706.66;5013934;28;123788;-79
2022/08/25 03:41:53;;;;;;;3.40;2.80;;;24.10;65.40;;;24.42;46.47;98698.56;5022206;28;114373;-83
2022/08/25 03:44:21;;;;;;;3.07;2.70;;;24.10;65.50;;;24.37;46.56;98692.53;5016729;28;113995;-81
2022/08/25 03:46:50;;;;;;;3.53;2.50;;;24.00;65.60;;;24.34;46.88;98691.34;5021463;28;124081;-82
2022/08/25 03:49:22;;;;;;;3.43;3.03;;;24.00;65.90;;;24.31;46.69;98680.84;5008263;28;123862;-81
2022/08/25 03:51:52;;;;;;;3.93;3.23;;;23.90;66.00;;;24.30;46.68;98679.22;5020092;28;115316;-82
2022/08/25 03:54:23;;;;;;;3.40;2.63;;;23.90;66.20;;;24.28;46.94;98687.31;5008168;28;113894;-79
2022/08/25 03:56:50;;;;;;;3.23;2.93;;;23.90;66.40;;;24.28;46.83;98683.69;5018257;28;124155;-79
2022/08/25 03:59:17;;;;;;;3.60;2.37;;;23.90;66.50;;;24.26;46.84;98684.09;5023981;28;123643;-82
2022/08/25 04:01:46;;;;;;;4.00;3.07;;;23.90;66.70;;;24.25;46.99;98683.28;5022037;27;114362;-81
2022/08/25 04:04:14;;;;;;;7.20;2.60;;;23.80;66.80;;;24.24;47.17;98676.03;5010346;28;114081;-81
2022/08/25 04:06:42;;;;;;;4.43;2.97;;;23.80;67.00;;;24.23;46.99;98684.88;5007472;28;124165;-81
2022/08/25 04:09:11;;;;;;;4.03;2.97;;;23.80;67.10;;;24.21;46.96;98688.13;5012329;28;123647;-82
2022/08/25 04:11:38;;;;;;;3.43;3.10;;;23.80;67.30;;;24.20;47.10;98680.88;5016741;28;114262;-81
2022/08/25 04:14:05;;;;;;;5.40;3.80;;;23.80;67.50;;;24.18;46.99;98676.84;5007953;28;114312;-81
2022/08/25 04:16:33;;;;;;;3.30;2.90;;;23.80;67.60;;;24.14;47.49;98682.50;5008450;28;124098;-80
2022/08/25 04:19:05;;;;;;;6.63;2.80;;;23.80;67.80;;;24.13;47.42;98680.09;5020889;27;123867;-79
2022/08/25 04:21:31;;;;;;;3.87;3.47;;;23.70;67.80;;;24.08;47.55;98677.69;5009217;28;114377;-81
2022/08/25 04:23:58;;;;;;;5.90;3.87;;;23.70;68.10;;;24.04;47.59;98677.69;5010854;28;114056;-79
2022/08/25 04:26:36;;;;;;;5.50;3.00;;;23.60;68.20;;;24.00;47.65;98688.97;5018685;28;124093;-80
2022/08/25 04:29:05;;;;;;;4.20;3.50;;;23.60;68.40;;;23.98;47.95;98690.59;5009302;28;123604;-79
2022/08/25 04:31:32;;;;;;;5.03;3.50;;;23.60;68.70;;;23.94;47.96;98687.00;5012503;28;114571;-79
2022/08/25 04:34:02;;;;;;;4.53;3.47;;;23.50;69.00;;;23.85;48.26;98686.59;5011287;28;114109;-81
2022/08/25 04:36:29;;;;;;;6.13;3.50;;;23.40;69.50;;;23.79;48.27;98680.53;5015835;28;124176;-79
2022/08/25 04:38:56;;;;;;;6.30;3.97;;;23.30;69.60;;;23.77;48.17;98682.97;5021001;28;123823;-80
2022/08/25 04:41:24;;;;;;;4.70;3.20;;;23.40;69.90;;;23.74;48.37;98675.31;5013513;28;115466;-79
2022/08/25 04:43:52;;;;;;;4.33;3.20;;;23.30;70.00;;;23.73;48.52;98682.97;5010034;28;115170;-78
2022/08/25 04:46:24;;;;;;;4.00;2.90;;;23.30;70.10;;;23.73;48.52;98685.78;5010423;28;124473;-80
2022/08/25 04:48:53;;;;;;;;;;;23.30;70.40;;;23.75;48.61;98683.38;5016566;27;123864;-79
2022/08/25 04:51:29;;;;;;;4.20;3.40;;;23.30;70.40;;;23.76;48.54;98679.34;5029799;28;114615;-78
2022/08/25 04:54:00;;;;;;;4.63;3.50;;;23.30;70.60;;;23.77;48.54;98680.94;5030676;28;114604;-80
2022/08/25 04:56:28;;;;;;;3.90;3.17;;;23.30;70.70;;;23.80;48.52;98687.78;5027810;28;124401;-82
2022/08/25 04:58:55;;;;;;;7.93;4.47;;;23.30;70.90;;;23.80;48.71;98691.44;5017809;28;123919;-81
2022/08/25 05:01:25;;;;;;;4.10;3.40;;;23.40;71.10;;;23.80;48.43;98699.91;5028959;27;114845;-81
2022/08/25 05:03:58;;;;;;;4.00;3.50;;;23.40;71.20;;;23.82;48.72;98699.47;5027213;27;113971;-81
2022/08/25 05:06:26;;;;;;;4.67;3.97;;;23.40;71.20;;;23.83;48.74;98700.28;5019668;28;125260;-81
2022/08/25 05:08:52;;;;;;;;;;;23.40;71.40;;;23.85;48.73;98700.69;5020634;28;124231;-80
2022/08/25 05:11:20;;;;;;;;;;;23.40;71.50;;;23.86;48.73;98693.81;5021837;28;114630;-80
2022/08/25 05:13:47;;;;;;;;;;;23.40;71.60;;;23.86;48.85;98693.81;5010986;28;114169;-82
2022/08/25 05:16:14;;;;;;;;;;;23.40;71.70;;;23.87;48.84;98699.06;5014148;28;123631;-79
2022/08/25 05:18:41;;;;;;;;;;;23.40;71.90;;;23.88;48.69;98697.84;5025921;27;123629;-82
2022/08/25 05:21:14;;;;;;;;;;;23.40;72.00;;;23.89;48.89;98685.38;5028464;27;114943;-81
2022/08/25 05:23:41;;;;;;;5.77;4.10;;;23.40;72.20;;;23.92;48.80;98686.59;5018678;28;113907;-80
2022/08/25 05:26:15;;;;;;;3.90;3.47;;;23.50;72.40;;;23.95;48.79;98674.47;5021274;28;123929;-80
2022/08/25 05:28:42;;;;;;;6.83;4.70;;;23.50;72.50;;;23.98;48.69;98682.13;5016114;28;123729;-82
2022/08/25 05:31:12;;;;;;;5.00;3.90;;;23.50;72.50;;;24.00;48.81;98679.72;5029405;28;114660;-83
2022/08/25 05:33:40;;;;;;;7.90;4.37;;;23.50;72.60;;;24.03;48.66;98684.53;5020105;27;114617;-82
2022/08/25 05:36:10;;;;;;;4.73;4.20;;;23.50;72.70;;;24.05;48.85;98687.78;5018073;28;124592;-81
2022/08/25 05:38:37;;;;;;;4.50;4.03;;;23.50;72.80;;;24.08;48.82;98684.13;5010175;28;124014;-84
2022/08/25 05:41:06;;;;;;;;;;;23.60;73.70;;;24.12;48.67;98690.56;5016558;27;114796;-81
2022/08/25 05:43:32;;;;;;;;;;;23.60;72.90;;;24.16;48.53;98684.94;5018439;28;113979;-81
2022/08/25 05:45:59;;;;;;;;;;;23.60;72.90;;;24.18;48.55;98683.31;5035315;27;123556;-82
2022/08/25 05:48:26;;;;;;;;;;;23.60;72.90;;;24.20;48.77;98678.03;5014313;28;124531;-81
2022/08/25 05:50:57;;;;;;;;;;;23.70;73.00;;;24.23;48.69;98682.91;5013501;28;114629;-81
2022/08/25 05:53:24;;;;;;;;;;;23.70;73.00;;;24.22;48.67;98669.19;5011925;28;114030;-82
2022/08/25 05:55:52;;;;;;;;;;;23.70;73.00;;;24.25;48.61;98668.34;5010987;28;124182;-80
2022/08/25 05:58:18;;;;;;;;;;;23.70;73.10;;;24.28;48.65;98675.22;5013686;28;123594;-80
2022/08/25 06:00:45;;;;;;;;;;;23.70;73.10;;;24.31;48.74;98663.88;5013151;28;114340;-81
2022/08/25 06:03:11;;;;;;;;;;;23.70;73.20;;;24.33;48.53;98661.47;5019613;27;113168;-79
2022/08/25 06:05:37;;;;;;;;;;;23.80;73.30;;;24.35;48.52;98663.91;5017002;28;124443;-82
2022/08/25 06:08:04;;;;;;;;;;;23.80;73.20;;;24.38;48.52;98663.06;5015670;28;123850;-82
2022/08/25 06:10:30;;;;;;;;;;;23.80;73.20;;;24.40;48.46;98667.09;5020213;28;114279;-82
2022/08/25 06:12:59;;;;;;;;;;;23.90;73.30;;;24.42;48.51;98663.84;5020036;28;113826;-86
2022/08/25 06:15:26;;;;;;;;;;;23.90;73.40;;;24.41;48.64;98671.53;5019555;28;125147;-83
2022/08/25 06:17:55;;;;;;;;;;;23.90;73.50;;;24.43;48.65;98671.94;5011506;28;123685;-81
2022/08/25 06:20:25;;;;;;;;;;;23.90;73.60;;;24.44;48.40;98678.41;5013988;27;115412;-82
2022/08/25 06:22:52;;;;;;;;;;;23.90;73.70;;;24.45;48.39;98669.53;5019326;28;116044;-83
2022/08/25 06:25:23;;;;;;;;;;;23.90;73.80;;;24.51;48.57;98671.94;5016954;27;124586;-82
2022/08/25 06:27:49;;;;;;;;;;;23.90;73.80;;;24.58;48.40;98674.72;5016565;28;123890;-80
2022/08/25 06:30:21;;;;;;;;;;;24.00;73.80;;;24.62;48.15;98675.53;5011581;28;114422;-80
2022/08/25 06:32:48;;;;;;;;;;;24.00;73.90;;;24.65;47.97;98672.69;5013713;28;113120;-80
2022/08/25 06:35:17;;;;;;;;;;;24.00;74.00;;;24.65;48.38;98672.69;5011219;28;124226;-83
2022/08/25 06:37:44;;;;;;;;;;;24.00;74.20;;;24.71;48.41;98669.44;5021055;28;122829;-80
2022/08/25 06:40:12;;;;;;;;;;;24.00;74.10;;;24.75;48.50;98668.19;5031402;27;113539;-82
2022/08/25 06:42:39;;;;;;;;;;;24.10;74.10;;;24.84;48.29;98668.53;5017567;27;113773;-80
2022/08/25 06:45:05;;;;;;;;;;;24.20;74.20;;;24.94;47.98;98661.22;5023052;28;124253;-81
2022/08/25 06:47:32;;;;;;;;;;;24.20;74.00;;;25.01;47.90;98672.50;5025759;28;122335;-79
2022/08/25 06:49:58;;;;;;;;;;;24.30;74.00;;;25.09;47.63;98668.41;5027945;28;113946;-81
2022/08/25 06:52:24;;;;;;;;;;;24.40;74.00;;;25.21;47.67;98669.19;5025465;28;113989;-80
2022/08/25 06:54:52;;;;;;;;;;;24.50;73.80;;;25.24;47.70;98665.50;5027873;28;124463;-82
2022/08/25 06:57:18;;;;;;;;;;;24.50;73.60;;;25.28;47.22;98664.28;5018612;28;122061;-79
2022/08/25 06:59:44;;;;;;;;;;;24.50;73.50;;;25.36;47.15;98656.53;5018882;28;112552;-80
2022/08/25 07:02:10;;;;;;;;;;;24.60;73.30;;;25.45;47.01;98656.88;5025493;27;112968;-80
2022/08/25 07:04:37;;;;;;;;;;;24.70;73.30;;;25.52;46.71;98651.16;5009053;28;124111;-81
2022/08/25 07:07:03;;;;;;;;;;;24.80;73.20;;;25.59;46.87;98641.00;5018001;28;123959;-81
2022/08/25 07:09:30;;;;;;;;;;;24.80;73.10;;;25.65;46.84;98647.81;5011774;28;115155;-81
2022/08/25 07:11:56;;;;;;;;;;;24.90;73.00;;;25.70;46.79;98638.88;5012098;28;115184;-81
2022/08/25 07:14:22;;;;;;;;;;;24.90;72.90;;;25.78;46.71;98643.25;5011577;28;124578;-80
2022/08/25 07:16:49;;;;;;;;;;;25.00;72.90;;;25.81;46.58;98633.91;5008653;28;124045;-81
2022/08/25 07:19:19;;;;;;;;;;;25.10;72.80;;;25.85;46.64;98636.75;5029777;27;113951;-81
2022/08/25 07:21:45;;;;;;;;;;;25.10;72.60;;;25.92;46.42;98639.50;5010588;28;113881;-82
2022/08/25 07:24:12;;;;;;;;;;;25.20;72.60;;;26.01;46.07;98634.16;5021386;28;125010;-81
2022/08/25 07:26:41;;;;;;;;;;;25.30;72.50;;;26.07;46.30;98640.16;5013993;28;123953;-81
2022/08/25 07:29:16;;;;;;;;;;;25.30;72.30;;;26.12;45.71;98642.53;5021852;28;114521;-80
2022/08/25 07:31:42;;;;;;;;;;;25.40;72.10;;;26.14;45.58;98637.22;5016099;28;113300;-80
2022/08/25 07:36:55;;;;;;;;;;;25.50;72.00;;;26.20;45.49;98624.22;5013792;28;125003;-80
2022/08/25 07:39:22;;;;;;;6.45;5.00;;;25.50;71.80;;;26.27;45.50;98620.50;5041863;27;112609;-81
2022/08/25 07:41:50;;;;;;;10.90;5.67;;;25.50;72.40;;;26.36;45.74;98624.44;5007876;28;113572;-81
2022/08/25 07:44:17;;;;;;;7.00;4.60;;;25.70;71.70;;;26.45;45.16;98621.88;5015119;28;124587;-79
2022/08/25 07:46:43;;;;;;;11.40;5.70;;;25.70;71.40;;;26.52;45.18;98623.03;5017419;27;123408;-79
2022/08/25 07:49:10;;;;;;;7.17;4.33;;;25.70;71.10;;;26.57;45.41;98628.25;5019384;27;114049;-81
2022/08/25 07:51:37;;;;;;;6.30;5.40;;;25.80;71.10;;;26.63;44.84;98623.72;5022300;28;115365;-82
2022/08/25 07:54:05;;;;;;;6.17;4.40;;;25.90;71.00;;;26.70;44.85;98628.47;5011400;28;124188;-81
2022/08/25 07:56:32;;;;;;;10.17;4.77;;;25.90;70.80;;;26.77;44.73;98637.69;5011729;28;123768;-82
2022/08/25 07:58:58;;;;;;;6.53;5.10;;;26.00;70.50;;;26.85;44.50;98635.56;5010753;28;115395;-79
2022/08/25 08:01:25;;;;;;;8.77;6.10;;;26.10;70.30;;;26.94;44.39;98624.50;5011404;28;114958;-80
2022/08/25 08:03:52;;;;;;;9.60;6.20;;;26.20;70.10;;;26.99;44.08;98629.69;5018765;28;125022;-82
2022/08/25 08:06:22;;;;;;;7.20;5.30;;;26.20;69.90;;;27.06;43.90;98628.78;5011979;28;124333;-82
2022/08/25 08:08:52;;;;;;;6.13;5.17;;;26.30;69.70;;;27.12;43.80;98627.06;5013872;28;114215;-81
2022/08/25 08:11:21;;;;;;;7.93;5.43;;;26.40;69.50;;;27.15;43.86;98622.56;5010543;28;113243;-78
2022/08/25 08:13:49;;;;;;;8.37;5.70;;;26.40;69.30;;;27.19;43.70;98618.50;5016962;28;124954;-80
2022/08/25 08:16:18;;;;;;;10.70;4.97;;;26.50;69.10;;;27.26;43.49;98626.06;5022229;28;124029;-82
2022/08/25 08:18:45;;;;;;;7.17;4.70;;;26.50;68.80;;;27.33;43.74;98628.00;5022808;27;114837;-80
2022/08/25 08:21:15;;;;;;;7.23;5.63;;;26.60;68.70;;;27.36;43.55;98625.09;5012294;28;113926;-80
2022/08/25 08:23:42;;;;;;;7.90;5.80;;;26.60;69.20;;;27.39;43.28;98621.41;5021886;28;124566;-81
2022/08/25 08:26:09;;;;;;;6.17;4.80;;;26.70;68.30;;;27.43;43.47;98618.50;5022400;27;124182;-80
2022/08/25 08:28:35;;;;;;;7.80;4.50;;;26.70;68.20;;;27.50;43.11;98618.38;5012504;27;114052;-80
2022/08/25 08:31:03;;;;;;;8.90;5.40;;;26.80;68.00;;;27.58;43.03;98617.03;5024578;27;113839;-79
2022/08/25 08:33:30;;;;;;;8.80;5.27;;;26.90;67.90;;;27.64;43.09;98620.97;5014490;28;124174;-78
2022/08/25 08:36:04;;;;;;;6.70;5.83;;;26.90;67.60;;;27.65;42.75;98616.91;5027451;28;123150;-80
2022/08/25 08:38:34;;;;;;;8.57;5.00;;;27.00;67.50;;;27.67;43.00;98611.59;5026589;28;113250;-79
2022/08/25 08:44:41;;;;;;;14.87;6.27;;;27.10;67.10;;;27.76;42.61;98606.16;5024759;28;125273;-81
2022/08/25 08:47:29;;;;;;;9.20;5.17;;;27.10;66.70;;;27.79;42.40;98603.69;5025641;28;124427;-79
2022/08/25 08:50:32;;;;;;;7.63;5.13;;;27.10;66.80;;;27.77;42.42;98602.06;5023916;28;115655;-78
2022/08/25 08:53:15;;;;;;;7.33;5.00;;;27.20;66.50;;;27.80;42.29;98596.75;5022618;28;115324;-81
2022/08/25 08:55:51;;;;;;;5.90;5.17;;;27.20;66.30;;;27.83;42.54;98593.88;5027489;28;124145;-78
2022/08/25 08:58:21;;;;;;;15.47;4.87;;;27.20;66.10;;;27.88;42.43;98590.53;5014962;28;123608;-78
2022/08/25 09:00:54;;;;;;;6.43;4.47;;;27.20;66.00;;;27.92;42.19;98591.28;5007768;28;114320;-79
2022/08/25 09:03:51;;;;;;;4.80;4.23;;;27.30;65.80;;;27.94;42.01;98593.69;4996295;28;114069;-78
2022/08/25 09:06:44;;;;;;;5.70;4.40;;;27.30;65.40;;;28.01;41.79;98598.44;4980307;28;124307;-79
2022/08/25 09:09:34;;;;;;;6.87;4.60;;;27.40;65.40;;;28.09;41.37;98592.16;4990844;28;123873;-79
2022/08/25 09:12:56;;;;;;;6.53;5.80;;;27.50;65.20;;;28.12;41.48;98599.03;4990154;28;114839;-77
2022/08/25 09:18:57;;;;;;;11.80;4.23;;;27.60;64.40;;;28.22;40.91;98595.16;4999421;28;125426;-77
2022/08/25 09:21:45;;;;;;;5.50;4.57;;;27.60;63.80;;;28.23;40.57;98588.22;4995364;28;123856;-78
2022/08/25 09:24:56;;;;;;;5.20;4.40;;;27.60;63.30;;;28.29;40.54;98580.00;4993627;28;114063;-75
2022/08/25 09:27:47;;;;;;;5.27;4.60;;;27.70;63.30;;;28.34;40.64;98582.31;4932021;28;115598;-76
2022/08/25 09:30:20;;;;;;;5.77;4.13;;;27.70;62.90;;;28.38;40.74;98577.38;4991194;28;123114;-77
2022/08/25 09:33:00;;;;;;;6.17;4.83;;;27.80;63.00;;;28.42;40.10;98580.94;5011202;28;124229;-76
2022/08/25 09:35:39;;;;;;;6.63;4.57;;;27.80;62.60;;;28.44;39.83;98577.69;5028726;28;114454;-76
2022/08/25 09:38:09;;;;;;;6.43;4.90;;;27.80;62.30;;;28.46;39.92;98572.38;5010185;28;114236;-76
2022/08/25 09:40:53;;;;;;;5.57;4.87;;;27.90;62.10;;;28.50;40.01;98568.19;5012729;28;124108;-76
2022/08/25 09:43:31;;;;;;;7.87;4.60;;;27.90;61.90;;;28.56;39.65;98577.00;5012962;28;123927;-77
2022/08/25 09:46:01;;;;;;;5.77;5.00;;;28.00;61.70;;;28.58;39.76;98568.84;5018898;27;115047;-78
2022/08/25 09:48:36;;;;;;;7.23;4.77;;;28.00;61.40;;;28.59;39.75;98576.16;5018295;27;115025;-76
2022/08/25 09:51:28;;;;;;;5.80;4.60;;;28.00;61.60;;;28.56;39.97;98566.47;5014449;28;124003;-77
2022/08/25 09:54:03;;;;;;;9.00;5.23;;;28.00;61.50;;;28.55;39.87;98561.19;5013407;28;124103;-76
2022/08/25 09:56:33;;;;;;;6.13;4.23;;;28.00;61.50;;;28.56;40.00;98560.78;5014228;28;114298;-76
2022/08/25 09:59:33;;;;;;;6.00;4.83;;;28.00;61.60;;;28.56;39.98;98554.25;5016342;27;114071;-77
2022/08/25 10:02:24;;;;;;;7.70;4.77;;;28.10;61.50;;;28.60;40.02;98552.16;5012243;28;124359;-77
2022/08/25 10:04:51;;;;;;;5.60;4.60;;;28.10;61.50;;;28.63;39.82;98554.91;5005026;28;124106;-82
2022/08/25 10:07:36;;;;;;;5.83;4.90;;;28.10;61.70;;;28.69;40.19;98554.38;5011721;28;114414;-78
2022/08/25 10:10:18;;;;;;;8.73;5.23;;;28.10;61.80;;;28.70;40.18;98553.16;5009355;28;113756;-78
2022/08/25 10:12:46;;;;;;;5.87;5.20;;;28.20;61.70;;;28.71;40.12;98554.75;5014039;28;124052;-80
2022/08/25 10:15:30;;;;;;;5.70;4.97;;;28.20;61.50;;;28.72;39.82;98539.28;5022537;28;124413;-78
2022/08/25 10:18:25;;;;;;;7.20;5.80;;;28.20;61.50;;;28.71;39.91;98534.84;5014029;28;113901;-78
2022/08/25 10:21:19;;;;;;;5.93;4.43;;;28.20;61.10;;;28.74;39.82;98531.13;5020506;27;114923;-78
2022/08/25 10:23:51;;;;;;;6.37;5.23;;;28.20;61.00;;;28.80;39.84;98535.03;5007010;27;124295;-77
2022/08/25 10:26:41;;;;;;;6.10;4.80;;;28.30;61.00;;;28.83;39.54;98528.47;5018532;28;123920;-77
2022/08/25 10:29:30;;;;;;;5.40;4.90;;;28.30;60.50;;;28.91;38.92;98521.38;5017316;28;113772;-79
2022/08/25 10:32:06;;;;;;;4.87;4.37;;;28.40;60.10;;;28.98;38.82;98528.91;5018180;28;113383;-79
2022/08/25 10:34:49;;;;;;;4.93;4.27;;;28.40;59.70;;;29.04;38.99;98522.31;5018099;28;124029;-80
2022/08/25 10:37:39;;;;;;;5.43;4.73;;;28.50;59.30;;;29.11;38.27;98524.16;5010196;28;124284;-81
2022/08/25 10:40:33;;;;;;;5.73;5.10;;;28.60;59.20;;;29.12;38.17;98510.72;5010880;28;115270;-76
2022/08/25 10:43:18;;;;;;;5.27;4.73;;;28.60;58.70;;;29.16;37.91;98505.75;5008124;28;114964;-77
2022/08/25 10:45:55;;;;;;;7.40;5.23;;;28.70;59.20;;;29.21;37.58;98494.63;5014252;28;124662;-76
2022/08/25 10:48:51;;;;;;;4.80;4.30;;;28.70;58.10;;;29.27;37.63;98507.06;5011525;27;122867;-77
2022/08/25 10:51:47;;;;;;;4.63;3.53;;;28.70;57.80;;;29.35;37.19;98484.91;5016096;27;115885;-77
2022/08/25 10:54:33;;;;;;;5.53;3.93;;;28.80;57.40;;;29.43;36.75;98492.00;5009301;28;112879;-80